»·PEaware :: UAL2415 KEWR-KPDX

UAL2415 :: KEWR-KPDX

FLIGHT INFORMATION

Flight Status: Arrived
Operator:
United Airlines
More flights by this operator :: More flights under this callsign
Pilot: Jac C. (16067)
Aircraft: BOEING 737-900
(B739)
More flights by this aircraft type
Origin: KEWR Newark Intl
United States
Destination: KPDX Portland Intl
United States
More flights between these airports :: More routes between these airports
Route: COATE Q436 RAAKK Q440 HUFFR MLP JKNOX HHOOD4
File this flight plan on PilotEdge
Remarks: PBN / A1B1C1D1S1S2 DOF / 180902 REG / N806SB EET / KZOB0029 CZYZ0043 KZAU0118 KZMP0120 KZLC0314 KZSE0429 OPR / UAL PER / C RMK / TCAS SIMBRIEF
Altitude:
(Current/Filed)
36,000ft
Speed:
(Current/Filed)
453kts
Departed: 02-Sep-18 11:37 AM
Arrived: 02-Sep-18 01:52 PM
Distance/Time
Traveled:
2108nm/2:15
Distance/Time
To Go:
Arrived

Flight Plot

Page will automatically refresh every two minutes.

Flight plan parsing failed; only flown route is shown


Map Options




Map Legend


Flown Route
Filed Route
Departure Airport
Arrival Airport
Navaid (VOR, NDB)
Fix

Horizontal Profiles

Position Reports

Time Latitude Longitude Heading Altitude Ground
Speed
02-Sep-18 11:38 46.773228 -103.371769 280 36107ft 405kts
02-Sep-18 11:39 46.791025 -103.533308 280 36096ft 405kts
02-Sep-18 11:40 46.808536 -103.694448 280 36120ft 405kts
02-Sep-18 11:41 46.825802 -103.856668 280 36151ft 405kts
02-Sep-18 11:42 46.842874 -104.019198 280 36163ft 405kts
02-Sep-18 11:43 46.859668 -104.181302 280 36161ft 405kts
02-Sep-18 11:44 46.876280 -104.343984 280 36154ft 405kts
02-Sep-18 11:45 46.892655 -104.506798 280 36149ft 403kts
02-Sep-18 11:46 46.908438 -104.666166 279 36152ft 400kts
02-Sep-18 11:47 46.923955 -104.826751 279 36154ft 397kts
02-Sep-18 11:48 46.939095 -104.985497 279 36153ft 394kts
02-Sep-18 11:49 46.953970 -105.143536 279 36151ft 391kts
02-Sep-18 11:50 46.968533 -105.300486 279 36150ft 388kts
02-Sep-18 11:51 46.982815 -105.456658 279 36139ft 386kts
02-Sep-18 11:51 46.994475 -105.585915 279 36123ft 383kts
02-Sep-18 11:53 47.010197 -105.764357 278 36128ft 381kts
02-Sep-18 11:54 47.023472 -105.918058 278 36126ft 378kts
02-Sep-18 11:55 47.036443 -106.069976 278 36124ft 376kts
02-Sep-18 11:55 47.047095 -106.196242 278 36115ft 375kts
02-Sep-18 11:56 47.059734 -106.348041 278 36102ft 376kts
02-Sep-18 11:58 47.074256 -106.525417 278 36100ft 376kts
02-Sep-18 11:58 47.084441 -106.651853 277 36098ft 376kts
02-Sep-18 11:59 47.096189 -106.802331 277 36109ft 376kts
02-Sep-18 12:01 47.109800 -106.978882 277 36112ft 378kts
02-Sep-18 12:01 47.119504 -107.106399 277 36110ft 379kts
02-Sep-18 12:02 47.131053 -107.260338 277 36108ft 379kts
02-Sep-18 12:03 47.142382 -107.413857 277 36106ft 379kts
02-Sep-18 12:04 47.153549 -107.567857 277 36104ft 379kts
02-Sep-18 12:05 47.164278 -107.719569 277 36114ft 380kts
02-Sep-18 12:06 47.174880 -107.873720 277 36113ft 379kts
02-Sep-18 12:07 47.185331 -108.027517 277 36110ft 379kts
02-Sep-18 12:08 47.195639 -108.181594 277 36090ft 379kts
02-Sep-18 12:09 47.205762 -108.335599 277 36079ft 379kts
02-Sep-18 12:10 47.215729 -108.490143 277 36077ft 379kts
02-Sep-18 12:11 47.225481 -108.644427 277 36075ft 379kts
02-Sep-18 12:12 47.234519 -108.792761 275 36067ft 378kts
02-Sep-18 12:13 47.243743 -108.947095 275 36065ft 379kts
02-Sep-18 12:14 47.252813 -109.101179 275 36064ft 381kts
02-Sep-18 12:15 47.261805 -109.256806 275 36062ft 382kts
02-Sep-18 12:16 47.270624 -109.412681 275 36060ft 382kts
02-Sep-18 12:17 47.279230 -109.568226 275 36058ft 382kts
02-Sep-18 12:18 47.287422 -109.721093 275 36067ft 382kts
02-Sep-18 12:19 47.295473 -109.876761 275 36066ft 382kts
02-Sep-18 12:20 47.303416 -110.032822 275 36064ft 382kts
02-Sep-18 12:21 47.311171 -110.188341 275 36060ft 382kts
02-Sep-18 12:22 47.318760 -110.344108 275 36017ft 382kts
02-Sep-18 12:23 47.326168 -110.500021 275 35994ft 382kts
02-Sep-18 12:24 47.333331 -110.654842 274 35993ft 382kts
02-Sep-18 12:25 47.340131 -110.809883 274 36002ft 382kts
02-Sep-18 12:26 47.346841 -110.966102 274 36001ft 383kts
02-Sep-18 12:27 47.353427 -111.122869 274 35999ft 386kts
02-Sep-18 12:28 47.359681 -111.275707 274 36027ft 386kts
02-Sep-18 12:29 47.365948 -111.433310 274 36050ft 386kts
02-Sep-18 12:30 47.372033 -111.591268 274 36048ft 386kts
02-Sep-18 12:31 47.377733 -111.746830 274 36058ft 386kts
02-Sep-18 12:32 47.383264 -111.904572 274 36056ft 386kts
02-Sep-18 12:33 47.388663 -112.062506 274 36054ft 386kts
02-Sep-18 12:34 47.393896 -112.220464 274 36067ft 386kts
02-Sep-18 12:35 47.398949 -112.378403 274 36080ft 386kts
02-Sep-18 12:36 47.403819 -112.536550 274 36083ft 386kts
02-Sep-18 12:37 47.408354 -112.690780 273 36092ft 386kts
02-Sep-18 12:38 47.412653 -112.848726 273 36085ft 386kts
02-Sep-18 12:39 47.416846 -113.007598 273 36102ft 388kts
02-Sep-18 12:40 47.420877 -113.166506 273 36108ft 388kts
02-Sep-18 12:41 47.424734 -113.325501 273 36106ft 388kts
02-Sep-18 12:42 47.428390 -113.483915 273 36104ft 388kts
02-Sep-18 12:43 47.431875 -113.643194 273 36103ft 388kts
02-Sep-18 12:44 47.434960 -113.800066 272 36111ft 388kts
02-Sep-18 12:45 47.437916 -113.959352 272 36110ft 388kts
02-Sep-18 12:46 47.440715 -114.118455 272 36108ft 388kts
02-Sep-18 12:47 47.443345 -114.277647 272 36107ft 388kts
02-Sep-18 12:48 47.445797 -114.436933 272 36105ft 388kts
02-Sep-18 12:49 47.448052 -114.595661 273 36103ft 388kts
02-Sep-18 12:50 47.450019 -114.754879 272 36112ft 388kts
02-Sep-18 12:51 47.451612 -114.902399 272 36104ft 388kts
02-Sep-18 12:52 47.453031 -115.044788 272 36099ft 389kts
02-Sep-18 12:53 47.454472 -115.204752 272 36097ft 390kts
02-Sep-18 12:54 47.455728 -115.364915 272 36095ft 390kts
02-Sep-18 12:55 47.456801 -115.525097 272 36098ft 390kts
02-Sep-18 12:56 47.442246 -115.681364 247 36134ft 400kts
02-Sep-18 12:57 47.391631 -115.818618 245 36121ft 401kts
02-Sep-18 12:58 47.338116 -115.961029 245 36119ft 401kts
02-Sep-18 12:59 47.284233 -116.103699 245 36118ft 401kts
02-Sep-18 13:00 47.230023 -116.246506 245 36117ft 401kts
02-Sep-18 13:01 47.175349 -116.389731 245 36118ft 401kts
02-Sep-18 13:02 47.121501 -116.529984 245 36126ft 401kts
02-Sep-18 13:03 47.066722 -116.671857 245 36143ft 402kts
02-Sep-18 13:04 47.012883 -116.810204 244 36150ft 404kts
02-Sep-18 13:05 46.957508 -116.951989 243 36147ft 410kts
02-Sep-18 13:06 46.902379 -117.092517 242 36146ft 417kts
02-Sep-18 13:07 46.848387 -117.229443 242 36143ft 421kts
02-Sep-18 13:08 46.790039 -117.376664 242 36144ft 421kts
02-Sep-18 13:09 46.731928 -117.522599 242 36142ft 420kts
02-Sep-18 13:10 46.674537 -117.666035 241 36143ft 421kts
02-Sep-18 13:11 46.617572 -117.807497 241 36130ft 421kts
02-Sep-18 13:12 46.560068 -117.949716 241 36094ft 419kts
02-Sep-18 13:13 46.501543 -118.093742 241 36090ft 418kts
02-Sep-18 13:14 46.442677 -118.237930 241 36090ft 418kts
02-Sep-18 13:15 46.383387 -118.382460 241 36089ft 418kts
02-Sep-18 13:16 46.323799 -118.527012 241 36088ft 418kts
02-Sep-18 13:17 46.265347 -118.668113 240 36084ft 418kts
02-Sep-18 13:18 46.208881 -118.803520 240 36075ft 418kts
02-Sep-18 13:19 46.149592 -118.945044 240 36073ft 419kts
02-Sep-18 13:20 46.090033 -119.086544 240 36070ft 419kts
02-Sep-18 13:21 46.030457 -119.227403 240 36062ft 419kts
02-Sep-18 13:22 45.969971 -119.369722 240 36063ft 419kts
02-Sep-18 13:23 45.909073 -119.512307 240 36069ft 419kts
02-Sep-18 13:24 45.850354 -119.649112 240 35294ft 415kts
02-Sep-18 13:25 45.793124 -119.781627 239 34383ft 419kts
02-Sep-18 13:26 45.735372 -119.914693 239 33463ft 422kts
02-Sep-18 13:27 45.680385 -120.040820 239 32591ft 425kts
02-Sep-18 13:29 45.618410 -120.182296 239 31598ft 422kts
02-Sep-18 13:30 45.557256 -120.321118 240 29134ft 402kts
02-Sep-18 13:31 45.520800 -120.463646 269 26897ft 396kts
02-Sep-18 13:32 45.522106 -120.614917 272 24707ft 374kts
02-Sep-18 13:33 45.523786 -120.742688 271 22854ft 373kts
02-Sep-18 13:34 45.525197 -120.853296 271 21282ft 366kts
02-Sep-18 13:35 45.526873 -120.990520 271 19350ft 357kts
02-Sep-18 13:36 45.528042 -121.126380 271 17363ft 348kts
02-Sep-18 13:37 45.528674 -121.259566 272 15449ft 328kts
02-Sep-18 13:38 45.529146 -121.384282 272 13749ft 313kts
02-Sep-18 13:39 45.529526 -121.508466 272 12091ft 313kts
02-Sep-18 13:40 45.529742 -121.626043 272 10851ft 285kts
02-Sep-18 13:41 45.530004 -121.728214 274 9867ft 264kts
02-Sep-18 13:42 45.532614 -121.802971 274 9091ft 268kts
02-Sep-18 13:43 45.536064 -121.899804 274 8095ft 259kts
02-Sep-18 13:44 45.539501 -121.987886 276 7246ft 234kts
02-Sep-18 13:45 45.539816 -122.078543 263 6219ft 227kts
02-Sep-18 13:46 45.531516 -122.161716 263 5126ft 203kts
02-Sep-18 13:47 45.523970 -122.236621 263 4141ft 186kts
02-Sep-18 13:48 45.516675 -122.308971 262 3200ft 198kts
02-Sep-18 13:49 45.509214 -122.382413 262 2916ft 179kts
02-Sep-18 13:50 45.526304 -122.444739 299 2285ft 157kts
02-Sep-18 13:51 45.545425 -122.493845 300 1473ft 136kts
02-Sep-18 13:52 45.563406 -122.539960 299 759ft 133kts
02-Sep-18 13:53 45.581277 -122.585859 300 53ft 132kts
02-Sep-18 13:54 45.589280 -122.602243 22 37ft 19kts
02-Sep-18 13:55 45.591512 -122.599085 57 37ft 13kts
02-Sep-18 13:56 45.592500 -122.595086 119 37ft 17kts
02-Sep-18 13:57 45.590877 -122.591191 163 37ft 6kts
02-Sep-18 13:58 45.590251 -122.591560 209 37ft 0kts

Navigation Log

Ident Type
Flight plan parsing failed, navigation log unavailable